Time;durP1;ratioP1;P1;durP2;ratioP2;P2;SDS_P1;SDS_P2;PMS_P1;PMS_P2;Temp;Humidity;BMP_temperature;BMP_pressure;BME280_temperature;BME280_humidity;BME280_pressure;Samples;Min_cycle;Max_cycle;Signal;HPM_P1;HPM_P2
2022/09/14 00:02:12;;;;;;;7.78;1.40;;;;;;;;;;5033175;28;20212;-70
2022/09/14 00:04:37;;;;;;;6.80;1.42;;;;;;;;;;5031750;28;20219;-71
2022/09/14 00:07:03;;;;;;;8.70;1.50;;;;;;;;;;5015242;28;20234;-70
2022/09/14 00:09:28;;;;;;;7.07;1.75;;;;;;;;;;5032522;28;20204;-71
2022/09/14 00:11:54;;;;;;;6.22;1.63;;;;;;;;;;5032743;28;20233;-71
2022/09/14 00:14:19;;;;;;;8.25;1.70;;;;;;;;;;5031454;28;20220;-71
2022/09/14 00:16:44;;;;;;;10.07;1.60;;;;;;;;;;5031966;28;20207;-71
2022/09/14 00:19:23;;;;;;;4.88;1.33;;;;;;;;;;5030768;28;20269;-71
2022/09/14 00:21:50;;;;;;;6.45;1.20;;;;;;;;;;5033243;28;20220;-71
2022/09/14 00:24:15;;;;;;;9.48;1.20;;;;;;;;;;5031789;28;20215;-71
2022/09/14 00:26:40;;;;;;;11.38;1.65;;;;;;;;;;5032574;28;20294;-71
2022/09/14 00:29:06;;;;;;;8.38;1.50;;;;;;;;;;5032463;28;20250;-70
2022/09/14 00:31:32;;;;;;;6.35;1.60;;;;;;;;;;5032837;28;20679;-71
2022/09/14 00:33:57;;;;;;;6.70;1.40;;;;;;;;;;5014925;28;20224;-71
2022/09/14 00:36:23;;;;;;;6.80;1.50;;;;;;;;;;5032790;28;20294;-71
2022/09/14 00:38:49;;;;;;;9.43;1.70;;;;;;;;;;5031507;28;20210;-71
2022/09/14 00:41:15;;;;;;;7.03;1.58;;;;;;;;;;5030475;28;20240;-71
2022/09/14 00:43:56;;;;;;;8.65;1.30;;;;;;;;;;5031993;28;20211;-71
2022/09/14 00:46:22;;;;;;;11.35;1.50;;;;;;;;;;5051700;28;20252;-71
2022/09/14 00:48:47;;;;;;;7.55;1.48;;;;;;;;;;5051650;28;20573;-71
2022/09/14 00:51:13;;;;;;;5.88;1.30;;;;;;;;;;5032188;28;20623;-70
2022/09/14 00:53:38;;;;;;;7.78;1.60;;;;;;;;;;5031328;28;20610;-71
2022/09/14 00:56:04;;;;;;;6.40;1.20;;;;;;;;;;5030460;28;20243;-71
2022/09/14 00:58:29;;;;;;;8.45;1.90;;;;;;;;;;5031186;28;20667;-72
2022/09/14 01:00:54;;;;;;;7.85;2.33;;;;;;;;;;5031819;28;20223;-73
2022/09/14 01:03:20;;;;;;;9.88;1.65;;;;;;;;;;5031995;28;20306;-71
2022/09/14 01:05:50;;;;;;;9.13;1.98;;;;;;;;;;5031437;28;20242;-71
2022/09/14 01:08:35;;;;;;;8.30;1.67;;;;;;;;;;5030173;28;20270;-72
2022/09/14 01:11:06;;;;;;;8.05;1.45;;;;;;;;;;5029635;28;20216;-70
2022/09/14 01:13:36;;;;;;;6.40;1.48;;;;;;;;;;5031148;28;20254;-71
2022/09/14 01:16:12;;;;;;;11.48;1.98;;;;;;;;;;5013621;28;20215;-70
2022/09/14 01:18:39;;;;;;;8.55;1.67;;;;;;;;;;5031104;28;20235;-72
2022/09/14 01:21:06;;;;;;;7.18;1.30;;;;;;;;;;5029833;28;20314;-70
2022/09/14 01:23:35;;;;;;;8.80;1.33;;;;;;;;;;5031690;28;20204;-71
2022/09/14 01:26:11;;;;;;;7.97;1.40;;;;;;;;;;5030804;28;20215;-71
2022/09/14 01:28:41;;;;;;;9.95;1.70;;;;;;;;;;5030084;28;20227;-72
2022/09/14 01:31:08;;;;;;;8.77;1.42;;;;;;;;;;5031558;28;21189;-72
2022/09/14 01:33:35;;;;;;;6.18;1.40;;;;;;;;;;5030858;28;20207;-71
2022/09/14 01:36:01;;;;;;;8.23;1.40;;;;;;;;;;5029355;28;20211;-70
2022/09/14 01:38:29;;;;;;;6.88;1.77;;;;;;;;;;5030155;28;20208;-71
2022/09/14 01:40:54;;;;;;;9.82;2.13;;;;;;;;;;5030512;28;20235;-71
2022/09/14 01:43:31;;;;;;;11.32;1.30;;;;;;;;;;5033841;28;20650;-72
2022/09/14 01:45:58;;;;;;;7.78;1.38;;;;;;;;;;5030777;28;20220;-72
2022/09/14 01:48:26;;;;;;;9.02;1.50;;;;;;;;;;5029767;28;20211;-72
2022/09/14 01:50:52;;;;;;;8.23;1.35;;;;;;;;;;5029770;28;20686;-72
2022/09/14 01:53:37;;;;;;;5.97;1.40;;;;;;;;;;5048784;28;20234;-71
2022/09/14 01:56:14;;;;;;;7.93;1.55;;;;;;;;;;5049591;28;20610;-71
2022/09/14 01:58:43;;;;;;;6.00;1.00;;;;;;;;;;5031657;28;20200;-71
2022/09/14 02:01:09;;;;;;;8.30;2.08;;;;;;;;;;5029681;28;20294;-71
2022/09/14 02:03:36;;;;;;;6.65;1.42;;;;;;;;;;5029676;28;20793;-71
2022/09/14 02:06:02;;;;;;;6.43;1.33;;;;;;;;;;5029603;28;20249;-71
2022/09/14 02:08:28;;;;;;;5.40;1.20;;;;;;;;;;5031399;28;20242;-71
2022/09/14 02:10:54;;;;;;;7.15;1.40;;;;;;;;;;5029933;28;20235;-72
2022/09/14 02:13:19;;;;;;;8.50;1.38;;;;;;;;;;5029219;28;20731;-71
2022/09/14 02:15:44;;;;;;;13.02;1.88;;;;;;;;;;5029981;28;20203;-71
2022/09/14 02:18:09;;;;;;;7.47;1.60;;;;;;;;;;5028669;28;20220;-72
2022/09/14 02:20:40;;;;;;;6.93;1.50;;;;;;;;;;5030940;28;20588;-72
2022/09/14 02:23:05;;;;;;;7.72;1.40;;;;;;;;;;5029552;28;20250;-71
2022/09/14 02:25:31;;;;;;;7.75;1.42;;;;;;;;;;5029888;28;20215;-72
2022/09/14 02:27:56;;;;;;;7.47;1.30;;;;;;;;;;5029381;28;20713;-73
2022/09/14 02:30:22;;;;;;;5.50;1.40;;;;;;;;;;5029576;28;20212;-73
2022/09/14 02:32:56;;;;;;;8.50;1.40;;;;;;;;;;5029098;28;20730;-73
2022/09/14 02:35:23;;;;;;;6.25;1.50;;;;;;;;;;5029242;28;20211;-73
2022/09/14 02:37:53;;;;;;;7.47;1.20;;;;;;;;;;5013257;28;20207;-73
2022/09/14 02:40:24;;;;;;;8.85;1.50;;;;;;;;;;5028695;28;20321;-72
2022/09/14 02:42:54;;;;;;;9.15;1.92;;;;;;;;;;5040699;28;20599;-72
2022/09/14 02:45:21;;;;;;;11.45;1.52;;;;;;;;;;5048368;28;20250;-73
2022/09/14 02:47:49;;;;;;;5.10;1.40;;;;;;;;;;5050851;28;20214;-73
2022/09/14 02:50:16;;;;;;;8.07;1.33;;;;;;;;;;5049550;28;20211;-73
2022/09/14 02:52:51;;;;;;;10.20;1.80;;;;;;;;;;5036096;28;20212;-73
2022/09/14 02:55:18;;;;;;;6.57;1.63;;;;;;;;;;5029083;28;20694;-72
2022/09/14 02:57:57;;;;;;;7.50;1.52;;;;;;;;;;5029314;28;20212;-73
2022/09/14 03:00:23;;;;;;;6.70;2.22;;;;;;;;;;5028400;28;20219;-72
2022/09/14 03:02:48;;;;;;;9.32;1.40;;;;;;;;;;5029479;28;20294;-73
2022/09/14 03:05:13;;;;;;;7.57;1.30;;;;;;;;;;5030782;28;20220;-72
2022/09/14 03:07:39;;;;;;;5.15;1.20;;;;;;;;;;5030392;28;20550;-73
2022/09/14 03:10:04;;;;;;;10.98;1.30;;;;;;;;;;5029861;28;20592;-72
2022/09/14 03:12:30;;;;;;;5.10;1.17;;;;;;;;;;5030619;28;20262;-72
2022/09/14 03:14:55;;;;;;;10.77;1.50;;;;;;;;;;5028819;28;20291;-72
2022/09/14 03:17:20;;;;;;;7.45;1.45;;;;;;;;;;5030177;28;20215;-72
2022/09/14 03:19:46;;;;;;;8.25;1.40;;;;;;;;;;5030683;28;20216;-72
2022/09/14 03:22:11;;;;;;;6.32;1.48;;;;;;;;;;5030038;28;20226;-72
2022/09/14 03:24:36;;;;;;;7.68;1.45;;;;;;;;;;5030366;28;20622;-72
2022/09/14 03:27:01;;;;;;;6.22;1.58;;;;;;;;;;5012473;28;20695;-71
2022/09/14 03:29:27;;;;;;;8.07;1.50;;;;;;;;;;5029682;28;20258;-71
2022/09/14 03:31:52;;;;;;;6.05;1.27;;;;;;;;;;5008513;28;20275;-71
2022/09/14 03:34:17;;;;;;;5.68;1.38;;;;;;;;;;5018672;28;20216;-71
2022/09/14 03:36:43;;;;;;;7.07;1.50;;;;;;;;;;5004317;28;20688;-71
2022/09/14 03:39:08;;;;;;;4.57;1.40;;;;;;;;;;5011713;28;20711;-71
2022/09/14 03:41:33;;;;;;;7.03;1.58;;;;;;;;;;5019517;28;20292;-72
2022/09/14 03:43:59;;;;;;;8.15;1.80;;;;;;;;;;4997545;28;20224;-72
2022/09/14 03:46:25;;;;;;;10.02;1.65;;;;;;;;;;4996091;28;20307;-72
2022/09/14 03:48:51;;;;;;;6.15;1.67;;;;;;;;;;5014086;28;20575;-71
2022/09/14 03:51:16;;;;;;;7.10;1.48;;;;;;;;;;5018681;28;20223;-71
2022/09/14 03:53:41;;;;;;;4.95;1.20;;;;;;;;;;5019552;28;20204;-71
2022/09/14 03:56:07;;;;;;;8.60;1.67;;;;;;;;;;5003169;28;20224;-71
2022/09/14 03:58:33;;;;;;;9.07;1.45;;;;;;;;;;5005277;28;20220;-71
2022/09/14 04:01:05;;;;;;;4.43;1.17;;;;;;;;;;5004083;28;20229;-71
2022/09/14 04:03:31;;;;;;;7.60;1.33;;;;;;;;;;5038158;28;20250;-71
2022/09/14 04:05:56;;;;;;;7.63;1.63;;;;;;;;;;5016069;28;20256;-71
2022/09/14 04:08:22;;;;;;;5.85;1.30;;;;;;;;;;4995955;28;20216;-71
2022/09/14 04:10:47;;;;;;;9.15;1.70;;;;;;;;;;4995419;28;20213;-71
2022/09/14 04:13:12;;;;;;;5.93;1.50;;;;;;;;;;5000537;28;20220;-71
2022/09/14 04:15:38;;;;;;;7.38;1.60;;;;;;;;;;5021273;28;20218;-71
2022/09/14 04:18:03;;;;;;;8.77;1.65;;;;;;;;;;5008978;28;20613;-70
2022/09/14 04:20:28;;;;;;;7.00;1.60;;;;;;;;;;5003813;28;20220;-71
2022/09/14 04:22:54;;;;;;;7.78;1.42;;;;;;;;;;5018858;28;20219;-71
2022/09/14 04:25:19;;;;;;;9.15;1.30;;;;;;;;;;5017847;28;20220;-72
2022/09/14 04:27:44;;;;;;;6.13;1.50;;;;;;;;;;5001092;28;20267;-71
2022/09/14 04:30:10;;;;;;;7.07;1.88;;;;;;;;;;5013644;28;20515;-71
2022/09/14 04:32:35;;;;;;;7.82;1.40;;;;;;;;;;5029282;28;20957;-71
2022/09/14 04:35:01;;;;;;;4.70;1.40;;;;;;;;;;5032201;28;20224;-70
2022/09/14 04:37:26;;;;;;;8.23;1.75;;;;;;;;;;5023081;28;20313;-71
2022/09/14 04:39:52;;;;;;;8.23;1.13;;;;;;;;;;5021156;28;20212;-71
2022/09/14 04:42:17;;;;;;;6.13;1.30;;;;;;;;;;5002989;28;20240;-71
2022/09/14 04:44:42;;;;;;;5.25;1.40;;;;;;;;;;5019931;28;20219;-70
2022/09/14 04:47:08;;;;;;;5.80;1.52;;;;;;;;;;5020249;28;20227;-71
2022/09/14 04:49:33;;;;;;;5.10;1.40;;;;;;;;;;5022397;28;20243;-71
2022/09/14 04:51:58;;;;;;;9.13;1.23;;;;;;;;;;5008036;28;20290;-72
2022/09/14 04:54:23;;;;;;;6.53;2.00;;;;;;;;;;4994704;28;20327;-71
2022/09/14 04:56:49;;;;;;;7.95;1.70;;;;;;;;;;5010905;28;20219;-71
2022/09/14 04:59:14;;;;;;;7.88;1.70;;;;;;;;;;5001254;28;20217;-72
2022/09/14 05:01:41;;;;;;;7.70;1.73;;;;;;;;;;5017492;28;20726;-71
2022/09/14 05:04:07;;;;;;;7.13;1.33;;;;;;;;;;5017507;28;20307;-72
2022/09/14 05:06:33;;;;;;;5.78;1.30;;;;;;;;;;5021923;28;20246;-71
2022/09/14 05:08:58;;;;;;;5.63;1.67;;;;;;;;;;5022236;28;20235;-72
2022/09/14 05:11:25;;;;;;;4.93;1.58;;;;;;;;;;5036857;28;20222;-72
2022/09/14 05:13:50;;;;;;;7.57;1.60;;;;;;;;;;5017695;28;20326;-71
2022/09/14 05:16:17;;;;;;;11.05;1.98;;;;;;;;;;5013722;28;20761;-72
2022/09/14 05:18:43;;;;;;;5.45;1.30;;;;;;;;;;5010490;28;20240;-71
2022/09/14 05:21:09;;;;;;;6.78;1.35;;;;;;;;;;5013265;28;20303;-72
2022/09/14 05:23:34;;;;;;;7.10;1.50;;;;;;;;;;5017028;28;20583;-72
2022/09/14 05:26:00;;;;;;;9.43;2.00;;;;;;;;;;5006871;28;20217;-72
2022/09/14 05:28:25;;;;;;;7.78;2.03;;;;;;;;;;5023849;28;20210;-69
2022/09/14 05:30:50;;;;;;;7.55;1.80;;;;;;;;;;5031662;28;20207;-69
2022/09/14 05:33:16;;;;;;;7.63;1.67;;;;;;;;;;5030955;28;20444;-67
2022/09/14 05:35:41;;;;;;;6.25;1.60;;;;;;;;;;5031347;28;20541;-69
2022/09/14 05:38:06;;;;;;;6.18;1.50;;;;;;;;;;5029498;28;20223;-68
2022/09/14 05:40:31;;;;;;;6.60;1.80;;;;;;;;;;5023809;28;20227;-69
2022/09/14 05:42:57;;;;;;;7.57;2.15;;;;;;;;;;5019670;28;20230;-71
2022/09/14 05:45:22;;;;;;;7.53;1.90;;;;;;;;;;5025164;28;20212;-65
2022/09/14 05:47:47;;;;;;;5.43;1.60;;;;;;;;;;5032955;28;20216;-67
2022/09/14 05:50:13;;;;;;;5.05;1.50;;;;;;;;;;5031760;28;20707;-66
2022/09/14 05:52:39;;;;;;;6.38;1.50;;;;;;;;;;5038651;28;20218;-68
2022/09/14 05:55:04;;;;;;;7.70;1.60;;;;;;;;;;5018559;28;20216;-64
2022/09/14 05:57:29;;;;;;;6.65;1.55;;;;;;;;;;5023053;28;20208;-65
2022/09/14 05:59:55;;;;;;;7.25;1.70;;;;;;;;;;5021120;28;20576;-64
2022/09/14 06:02:20;;;;;;;5.03;1.50;;;;;;;;;;5022226;28;20790;-64
2022/09/14 06:04:45;;;;;;;5.68;1.30;;;;;;;;;;5021783;28;20211;-64
2022/09/14 06:07:11;;;;;;;6.72;1.55;;;;;;;;;;5020829;28;20204;-64
2022/09/14 06:09:37;;;;;;;9.27;1.75;;;;;;;;;;5021380;28;20271;-64
2022/09/14 06:12:02;;;;;;;4.88;1.50;;;;;;;;;;5020952;28;20737;-64
2022/09/14 06:14:27;;;;;;;7.18;1.65;;;;;;;;;;5022569;28;20212;-64
2022/09/14 06:16:53;;;;;;;5.85;1.48;;;;;;;;;;5023350;28;20216;-64
2022/09/14 06:19:18;;;;;;;4.35;1.80;;;;;;;;;;5020276;28;20215;-64
2022/09/14 06:21:43;;;;;;;9.25;2.08;;;;;;;;;;5022326;28;20370;-64
2022/09/14 06:24:09;;;;;;;7.75;1.90;;;;;;;;;;5021578;28;20215;-65
2022/09/14 06:26:35;;;;;;;8.63;2.22;;;;;;;;;;5020748;28;20208;-66
2022/09/14 06:29:00;;;;;;;10.85;2.53;;;;;;;;;;5025436;28;20240;-65
2022/09/14 06:31:25;;;;;;;7.03;2.00;;;;;;;;;;5027294;28;20851;-66
2022/09/14 06:33:51;;;;;;;5.65;2.00;;;;;;;;;;5014044;28;20199;-65
2022/09/14 06:36:18;;;;;;;6.65;1.90;;;;;;;;;;5025651;28;20302;-66
2022/09/14 06:38:43;;;;;;;7.95;1.80;;;;;;;;;;5017600;28;20573;-65
2022/09/14 06:41:11;;;;;;;6.88;2.30;;;;;;;;;;5007738;28;20294;-66
2022/09/14 06:43:37;;;;;;;8.52;1.90;;;;;;;;;;5006838;28;20299;-66
2022/09/14 06:46:05;;;;;;;7.28;1.92;;;;;;;;;;5007410;28;20224;-66
2022/09/14 06:48:34;;;;;;;7.28;1.80;;;;;;;;;;4984394;28;20269;-65
2022/09/14 06:50:59;;;;;;;7.40;1.80;;;;;;;;;;4991367;28;20212;-65
2022/09/14 06:53:24;;;;;;;7.13;2.17;;;;;;;;;;5033836;28;20598;-65
2022/09/14 06:55:50;;;;;;;7.45;1.92;;;;;;;;;;5008017;28;20208;-66
2022/09/14 06:58:15;;;;;;;7.78;2.20;;;;;;;;;;5020544;28;20713;-65
2022/09/14 07:00:41;;;;;;;8.80;2.00;;;;;;;;;;5025566;28;20698;-65
2022/09/14 07:03:06;;;;;;;6.40;1.73;;;;;;;;;;5026616;28;20216;-66
2022/09/14 07:05:32;;;;;;;6.18;2.00;;;;;;;;;;5027890;28;20227;-65
2022/09/14 07:07:57;;;;;;;5.63;1.85;;;;;;;;;;5027136;28;20212;-65
2022/09/14 07:10:26;;;;;;;6.22;1.75;;;;;;;;;;5031649;28;20346;-66
2022/09/14 07:12:52;;;;;;;8.20;1.90;;;;;;;;;;5031883;28;20212;-73
2022/09/14 07:15:18;;;;;;;7.88;2.00;;;;;;;;;;5029846;28;20220;-69
2022/09/14 07:17:43;;;;;;;7.95;1.92;;;;;;;;;;5029270;28;20223;-70
2022/09/14 07:20:10;;;;;;;9.43;2.10;;;;;;;;;;5029514;28;20220;-68
2022/09/14 07:22:35;;;;;;;6.85;1.80;;;;;;;;;;5030424;28;20536;-67
2022/09/14 07:25:00;;;;;;;8.77;1.77;;;;;;;;;;5031368;28;20247;-67
2022/09/14 07:27:26;;;;;;;3.63;1.40;;;;;;;;;;5025101;28;20252;-67
2022/09/14 07:29:51;;;;;;;7.70;2.00;;;;;;;;;;5017808;28;20631;-66
2022/09/14 07:32:16;;;;;;;6.83;1.80;;;;;;;;;;5011385;28;20465;-66
2022/09/14 07:34:42;;;;;;;8.45;1.90;;;;;;;;;;5010812;28;20208;-67
2022/09/14 07:37:07;;;;;;;8.20;2.15;;;;;;;;;;5019877;28;20216;-66
2022/09/14 07:39:33;;;;;;;7.32;1.83;;;;;;;;;;5030820;28;20216;-68
2022/09/14 07:41:58;;;;;;;8.43;1.80;;;;;;;;;;5029598;28;20897;-68
2022/09/14 07:44:24;;;;;;;6.32;1.73;;;;;;;;;;5028752;28;20216;-69
2022/09/14 07:46:49;;;;;;;6.50;1.67;;;;;;;;;;5030930;28;20204;-69
2022/09/14 07:49:14;;;;;;;8.73;1.70;;;;;;;;;;5029617;28;20220;-67
2022/09/14 07:51:40;;;;;;;7.35;1.70;;;;;;;;;;5035086;28;20291;-69
2022/09/14 07:54:05;;;;;;;8.70;1.60;;;;;;;;;;5049007;28;20211;-69
2022/09/14 07:56:31;;;;;;;6.32;1.58;;;;;;;;;;5047459;28;20910;-66
2022/09/14 07:58:57;;;;;;;7.20;1.40;;;;;;;;;;5030448;28;20223;-70
2022/09/14 08:01:22;;;;;;;6.88;1.75;;;;;;;;;;5029440;28;20299;-71
2022/09/14 08:03:48;;;;;;;7.50;1.85;;;;;;;;;;5029666;28;20732;-71
2022/09/14 08:06:15;;;;;;;7.15;2.15;;;;;;;;;;5030320;28;20232;-70
2022/09/14 08:08:41;;;;;;;5.57;2.03;;;;;;;;;;5028535;28;20757;-71
2022/09/14 08:11:10;;;;;;;6.85;1.52;;;;;;;;;;5028607;28;20306;-71
2022/09/14 08:13:36;;;;;;;4.35;1.33;;;;;;;;;;5029242;28;20203;-72
2022/09/14 08:16:02;;;;;;;6.35;1.65;;;;;;;;;;5029688;28;20238;-71
2022/09/14 08:18:27;;;;;;;8.15;1.48;;;;;;;;;;5028549;28;20709;-71
2022/09/14 08:20:53;;;;;;;3.97;1.45;;;;;;;;;;5029769;28;20223;-72
2022/09/14 08:23:18;;;;;;;7.55;1.67;;;;;;;;;;5029061;28;20212;-70
2022/09/14 08:25:44;;;;;;;4.95;1.40;;;;;;;;;;5028998;28;20208;-73
2022/09/14 08:28:09;;;;;;;3.90;1.38;;;;;;;;;;4996429;28;20291;-73
2022/09/14 08:30:34;;;;;;;7.07;1.60;;;;;;;;;;5025269;28;20592;-71
2022/09/14 08:33:00;;;;;;;5.78;1.58;;;;;;;;;;5029422;28;20224;-74
2022/09/14 08:35:25;;;;;;;8.10;1.58;;;;;;;;;;5029030;28;20204;-72
2022/09/14 08:37:51;;;;;;;5.70;1.45;;;;;;;;;;5030341;28;20208;-71
2022/09/14 08:40:16;;;;;;;6.70;1.63;;;;;;;;;;5027982;28;20738;-72
2022/09/14 08:42:42;;;;;;;5.70;1.83;;;;;;;;;;5028386;28;20236;-71
2022/09/14 08:45:09;;;;;;;7.60;1.52;;;;;;;;;;5026657;28;20473;-70
2022/09/14 08:47:37;;;;;;;7.90;1.63;;;;;;;;;;5023229;28;20212;-72
2022/09/14 08:50:05;;;;;;;6.82;1.88;;;;;;;;;;5018405;28;20578;-71
2022/09/14 08:52:33;;;;;;;6.55;1.92;;;;;;;;;;5040290;28;20218;-67
2022/09/14 08:54:59;;;;;;;6.13;2.00;;;;;;;;;;5048103;28;20682;-72
2022/09/14 08:57:34;;;;;;;5.90;2.00;;;;;;;;;;5022357;28;20246;-71
2022/09/14 09:00:07;;;;;;;5.05;1.98;;;;;;;;;;5010678;28;20234;-71
2022/09/14 09:02:35;;;;;;;10.73;2.70;;;;;;;;;;5028832;28;20318;-69
2022/09/14 09:05:00;;;;;;;9.43;2.03;;;;;;;;;;5028300;28;20710;-70
2022/09/14 09:07:30;;;;;;;7.75;2.95;;;;;;;;;;5028246;28;20216;-73
2022/09/14 09:09:56;;;;;;;6.50;1.70;;;;;;;;;;5025194;28;20238;-70
2022/09/14 09:12:32;;;;;;;6.63;1.80;;;;;;;;;;5015991;28;20232;-68
2022/09/14 09:14:58;;;;;;;7.22;1.83;;;;;;;;;;5009003;28;20229;-70
2022/09/14 09:17:27;;;;;;;6.35;1.80;;;;;;;;;;5015693;28;20216;-71
2022/09/14 09:19:58;;;;;;;7.00;2.17;;;;;;;;;;5026781;28;20746;-71
2022/09/14 09:22:24;;;;;;;6.68;2.40;;;;;;;;;;5026841;28;20227;-71
2022/09/14 09:24:51;;;;;;;8.05;2.40;;;;;;;;;;5027523;28;20295;-73
2022/09/14 09:27:16;;;;;;;10.68;2.78;;;;;;;;;;5026478;28;20295;-74
2022/09/14 09:29:41;;;;;;;8.10;2.58;;;;;;;;;;5028791;28;20298;-74
2022/09/14 09:32:09;;;;;;;8.68;2.72;;;;;;;;;;5026503;28;20299;-73
2022/09/14 09:34:34;;;;;;;8.80;2.92;;;;;;;;;;5027042;28;20204;-69
2022/09/14 09:37:00;;;;;;;9.52;2.88;;;;;;;;;;5030169;28;20222;-69
2022/09/14 09:39:25;;;;;;;6.65;2.60;;;;;;;;;;5047579;28;20203;-69
2022/09/14 09:41:54;;;;;;;5.20;2.33;;;;;;;;;;5045954;28;20229;-72
2022/09/14 09:44:19;;;;;;;6.10;2.10;;;;;;;;;;5045906;28;20218;-70
2022/09/14 09:46:49;;;;;;;7.55;2.35;;;;;;;;;;5047825;28;20218;-71
2022/09/14 09:49:15;;;;;;;5.63;2.10;;;;;;;;;;5045553;28;20729;-73
2022/09/14 09:51:40;;;;;;;6.10;2.53;;;;;;;;;;5042329;28;20216;-70
2022/09/14 09:54:07;;;;;;;8.90;2.20;;;;;;;;;;5026072;28;20308;-69
2022/09/14 09:56:34;;;;;;;7.93;2.72;;;;;;;;;;5025774;28;20261;-70
2022/09/14 09:58:59;;;;;;;9.82;2.85;;;;;;;;;;5026143;28;20234;-70
2022/09/14 10:01:25;;;;;;;7.38;2.67;;;;;;;;;;5026736;28;20216;-70
2022/09/14 10:03:59;;;;;;;11.18;2.30;;;;;;;;;;5027544;28;20208;-67
2022/09/14 10:06:25;;;;;;;7.82;2.75;;;;;;;;;;5027268;28;20276;-72
2022/09/14 10:08:50;;;;;;;11.57;2.70;;;;;;;;;;5027345;28;20693;-70
2022/09/14 10:11:27;;;;;;;9.52;3.10;;;;;;;;;;5027698;28;20211;-72
2022/09/14 10:13:52;;;;;;;8.88;3.13;;;;;;;;;;5018018;28;20223;-70
2022/09/14 10:16:18;;;;;;;9.57;3.15;;;;;;;;;;5015708;28;20208;-69
2022/09/14 10:18:44;;;;;;;9.73;3.15;;;;;;;;;;5019596;28;20559;-69
2022/09/14 10:21:10;;;;;;;15.23;4.03;;;;;;;;;;5016499;28;20212;-70
2022/09/14 10:23:36;;;;;;;11.32;4.45;;;;;;;;;;5018494;28;20594;-68
2022/09/14 10:26:10;;;;;;;10.57;4.15;;;;;;;;;;5010220;28;20592;-67
2022/09/14 10:28:36;;;;;;;7.00;3.55;;;;;;;;;;5010048;28;20207;-70
2022/09/14 10:31:11;;;;;;;12.07;4.13;;;;;;;;;;5011610;28;20213;-69
2022/09/14 10:33:36;;;;;;;10.07;3.75;;;;;;;;;;5016631;28;20222;-71
2022/09/14 10:36:07;;;;;;;9.63;3.67;;;;;;;;;;5022314;28;20240;-69
2022/09/14 10:38:37;;;;;;;10.93;3.88;;;;;;;;;;5042150;28;20211;-70
2022/09/14 10:41:02;;;;;;;11.43;4.20;;;;;;;;;;5033693;28;20232;-69
2022/09/14 10:43:36;;;;;;;7.25;3.78;;;;;;;;;;5009684;28;20265;-70
2022/09/14 10:46:01;;;;;;;10.07;4.35;;;;;;;;;;5027082;28;20519;-66
2022/09/14 10:48:44;;;;;;;9.82;4.53;;;;;;;;;;5031777;28;20725;-67
2022/09/14 10:51:19;;;;;;;10.77;4.13;;;;;;;;;;5029892;28;20207;-69
2022/09/14 10:53:44;;;;;;;9.52;4.75;;;;;;;;;;5030964;28;20219;-71
2022/09/14 10:56:10;;;;;;;8.45;4.82;;;;;;;;;;5031998;28;20243;-71
2022/09/14 10:58:38;;;;;;;11.95;5.80;;;;;;;;;;5030808;28;20426;-69
2022/09/14 11:01:15;;;;;;;11.77;4.82;;;;;;;;;;5031626;28;20224;-70
2022/09/14 11:03:59;;;;;;;10.95;5.38;;;;;;;;;;5030286;28;20211;-70
2022/09/14 11:06:36;;;;;;;10.80;5.03;;;;;;;;;;5031261;28;20218;-73
2022/09/14 11:09:04;;;;;;;9.13;4.90;;;;;;;;;;5030777;28;20315;-71
2022/09/14 11:11:32;;;;;;;12.25;4.35;;;;;;;;;;5032910;28;20227;-70
2022/09/14 11:13:58;;;;;;;9.77;3.92;;;;;;;;;;5031460;28;20220;-71
2022/09/14 11:16:33;;;;;;;8.52;3.72;;;;;;;;;;5031759;28;20285;-70
2022/09/14 11:18:59;;;;;;;7.63;3.92;;;;;;;;;;5031266;28;20531;-70
2022/09/14 11:21:28;;;;;;;10.20;4.80;;;;;;;;;;5031828;28;20219;-71
2022/09/14 11:23:55;;;;;;;7.35;3.85;;;;;;;;;;5032228;28;20270;-67
2022/09/14 11:26:31;;;;;;;6.85;3.17;;;;;;;;;;5029518;28;20277;-66
2022/09/14 11:28:59;;;;;;;7.15;2.03;;;;;;;;;;5030484;28;20463;-67
2022/09/14 11:31:26;;;;;;;6.78;2.47;;;;;;;;;;5029810;28;20328;-67
2022/09/14 11:33:54;;;;;;;9.43;2.60;;;;;;;;;;5021365;28;20477;-66
2022/09/14 11:36:21;;;;;;;7.50;2.47;;;;;;;;;;5030152;28;20532;-66
2022/09/14 11:38:48;;;;;;;10.00;2.20;;;;;;;;;;5030407;28;20577;-66
2022/09/14 11:41:16;;;;;;;6.75;2.65;;;;;;;;;;5029403;28;20231;-66
2022/09/14 11:43:46;;;;;;;5.45;2.28;;;;;;;;;;5031353;28;20219;-66
2022/09/14 11:46:13;;;;;;;9.73;3.42;;;;;;;;;;5019101;28;20204;-66
2022/09/14 11:48:38;;;;;;;8.40;2.33;;;;;;;;;;5028960;28;20232;-66
2022/09/14 11:51:12;;;;;;;8.63;2.58;;;;;;;;;;5030730;28;20307;-66
2022/09/14 11:53:39;;;;;;;9.30;2.45;;;;;;;;;;5020696;28;20211;-65
2022/09/14 11:56:04;;;;;;;8.63;2.17;;;;;;;;;;5014688;28;20227;-65
2022/09/14 11:58:30;;;;;;;5.50;2.05;;;;;;;;;;5026441;28;20203;-65
2022/09/14 12:01:00;;;;;;;5.75;2.63;;;;;;;;;;5022872;28;20252;-65
2022/09/14 12:03:44;;;;;;;10.00;3.08;;;;;;;;;;5010322;28;20251;-65
2022/09/14 12:06:38;;;;;;;8.00;3.00;;;;;;;;;;5000724;28;20413;-65
2022/09/14 12:09:12;;;;;;;9.27;2.78;;;;;;;;;;5003474;28;20758;-66
2022/09/14 12:11:38;;;;;;;8.38;2.35;;;;;;;;;;5002942;28;20223;-65
2022/09/14 12:14:13;;;;;;;8.25;2.28;;;;;;;;;;5011334;28;20208;-65
2022/09/14 12:16:57;;;;;;;6.20;2.33;;;;;;;;;;5013393;28;20212;-65
2022/09/14 12:19:25;;;;;;;8.00;2.13;;;;;;;;;;5017102;28;20208;-66
2022/09/14 12:21:50;;;;;;;9.13;2.72;;;;;;;;;;5008906;28;20228;-66
2022/09/14 12:24:18;;;;;;;6.65;2.45;;;;;;;;;;5009201;28;20585;-66
2022/09/14 12:26:43;;;;;;;6.80;2.28;;;;;;;;;;5009574;28;20222;-66
2022/09/14 12:29:26;;;;;;;9.73;2.88;;;;;;;;;;5010077;28;20212;-66
2022/09/14 12:31:52;;;;;;;6.57;2.63;;;;;;;;;;5010391;28;20204;-65
2022/09/14 12:34:19;;;;;;;9.75;2.08;;;;;;;;;;5025525;28;20442;-65
2022/09/14 12:36:44;;;;;;;4.95;2.00;;;;;;;;;;5032188;28;20221;-65
2022/09/14 12:39:10;;;;;;;7.55;2.88;;;;;;;;;;5029673;28;20212;-66
2022/09/14 12:41:36;;;;;;;10.57;3.03;;;;;;;;;;5029769;28;20598;-65
2022/09/14 12:44:03;;;;;;;9.13;2.35;;;;;;;;;;5029504;28;20291;-65
2022/09/14 12:46:30;;;;;;;6.60;2.60;;;;;;;;;;5017404;28;20296;-65
2022/09/14 12:48:57;;;;;;;6.68;2.15;;;;;;;;;;5009947;28;20211;-65
2022/09/14 12:51:25;;;;;;;7.07;2.50;;;;;;;;;;5013386;28;20211;-65
2022/09/14 12:53:59;;;;;;;5.95;2.55;;;;;;;;;;5049969;28;20710;-65
2022/09/14 12:56:31;;;;;;;6.55;2.35;;;;;;;;;;5049493;28;20230;-65
2022/09/14 12:59:02;;;;;;;9.75;2.97;;;;;;;;;;5009554;28;20214;-66
2022/09/14 13:01:33;;;;;;;10.43;2.50;;;;;;;;;;5009766;28;20228;-65
2022/09/14 13:03:59;;;;;;;8.68;2.45;;;;;;;;;;5008355;28;20332;-66
2022/09/14 13:06:28;;;;;;;7.63;2.67;;;;;;;;;;5023105;28;20312;-65
2022/09/14 13:08:54;;;;;;;8.60;2.90;;;;;;;;;;5009947;28;20211;-65
2022/09/14 13:11:20;;;;;;;5.13;2.40;;;;;;;;;;5009062;28;20213;-66
2022/09/14 13:13:45;;;;;;;8.98;2.45;;;;;;;;;;5009543;28;20258;-66
2022/09/14 13:16:12;;;;;;;9.13;2.45;;;;;;;;;;5024436;28;20205;-66
2022/09/14 13:18:37;;;;;;;11.75;3.03;;;;;;;;;;5042849;28;20211;-66
2022/09/14 13:21:11;;;;;;;8.55;2.65;;;;;;;;;;5028304;28;20289;-66
2022/09/14 13:23:38;;;;;;;10.10;2.60;;;;;;;;;;5023765;28;20203;-67
2022/09/14 13:26:10;;;;;;;11.77;2.63;;;;;;;;;;5024907;28;20215;-66
2022/09/14 13:28:35;;;;;;;9.60;3.05;;;;;;;;;;5029178;28;20208;-66
2022/09/14 13:31:01;;;;;;;10.38;2.42;;;;;;;;;;5028770;28;20235;-66
2022/09/14 13:33:27;;;;;;;8.98;2.55;;;;;;;;;;5026954;28;20212;-66
2022/09/14 13:35:53;;;;;;;9.20;2.85;;;;;;;;;;5029119;28;20231;-66
2022/09/14 13:38:21;;;;;;;9.40;2.42;;;;;;;;;;5029929;28;20227;-66
2022/09/14 13:40:48;;;;;;;6.28;2.10;;;;;;;;;;5026967;28;20251;-66
2022/09/14 13:43:14;;;;;;;9.45;2.75;;;;;;;;;;5028710;28;20294;-66
2022/09/14 13:45:41;;;;;;;9.20;2.42;;;;;;;;;;5028123;28;20350;-66
2022/09/14 13:48:07;;;;;;;8.98;2.85;;;;;;;;;;5026476;28;20212;-66
2022/09/14 13:50:32;;;;;;;11.10;2.67;;;;;;;;;;5027960;28;20342;-67
2022/09/14 13:52:58;;;;;;;10.55;2.70;;;;;;;;;;5044247;28;20223;-66
2022/09/14 13:55:25;;;;;;;10.57;2.85;;;;;;;;;;5048439;28;20260;-66
2022/09/14 13:58:03;;;;;;;5.82;1.98;;;;;;;;;;5036988;28;20220;-66
2022/09/14 14:00:28;;;;;;;7.22;2.20;;;;;;;;;;5024309;28;20567;-66
2022/09/14 14:02:58;;;;;;;10.10;2.30;;;;;;;;;;5018797;28;20203;-66
2022/09/14 14:05:28;;;;;;;8.25;2.33;;;;;;;;;;5028551;28;20215;-66
2022/09/14 14:07:54;;;;;;;6.80;2.50;;;;;;;;;;5026837;28;20200;-66
2022/09/14 14:10:21;;;;;;;6.28;2.00;;;;;;;;;;5028037;28;20212;-66
2022/09/14 14:12:46;;;;;;;7.32;1.88;;;;;;;;;;5028608;28;20199;-66
2022/09/14 14:15:12;;;;;;;7.20;2.47;;;;;;;;;;5027698;28;20748;-66
2022/09/14 14:17:38;;;;;;;8.85;2.65;;;;;;;;;;5028124;28;20383;-66
2022/09/14 14:20:22;;;;;;;10.40;2.00;;;;;;;;;;5027969;28;20224;-65
2022/09/14 14:22:54;;;;;;;10.40;2.60;;;;;;;;;;5027628;28;20214;-66
2022/09/14 14:25:23;;;;;;;6.97;1.92;;;;;;;;;;5028136;28;20717;-67
2022/09/14 14:27:49;;;;;;;6.18;1.92;;;;;;;;;;5027135;28;20702;-66
2022/09/14 14:30:16;;;;;;;7.75;1.50;;;;;;;;;;5024138;28;20219;-65
2022/09/14 14:32:42;;;;;;;4.72;1.58;;;;;;;;;;5022385;28;20588;-66
2022/09/14 14:35:14;;;;;;;8.18;1.75;;;;;;;;;;5012210;28;20244;-65
2022/09/14 14:37:39;;;;;;;8.25;2.20;;;;;;;;;;5025938;28;20232;-66
2022/09/14 14:40:05;;;;;;;7.55;1.67;;;;;;;;;;5039886;28;20215;-65
2022/09/14 14:42:30;;;;;;;7.38;1.95;;;;;;;;;;5027803;28;20215;-65